createdAt,value
2023-03-16T00:00:04.860Z,101978.50
2023-03-16T00:05:01.511Z,101982.91
2023-03-16T00:09:58.093Z,101992.00
2023-03-16T00:14:54.538Z,101999.28
2023-03-16T00:19:57.039Z,102006.56
2023-03-16T00:24:53.952Z,102015.69
2023-03-16T00:29:55.891Z,102014.06
2023-03-16T00:34:52.843Z,102014.88
2023-03-16T00:39:49.975Z,102014.09
2023-03-16T00:44:46.624Z,102015.53
2023-03-16T00:49:44.241Z,102024.84
2023-03-16T00:54:42.970Z,102014.56
2023-03-16T00:59:39.608Z,102022.63
2023-03-16T01:04:36.782Z,102018.50
2023-03-16T01:09:36.624Z,102022.63
2023-03-16T01:14:34.813Z,102010.47
2023-03-16T01:19:34.068Z,102005.09
2023-03-16T01:24:31.066Z,102010.03
2023-03-16T01:29:27.493Z,102009.22
2023-03-16T01:34:24.046Z,102003.25
2023-03-16T01:39:20.477Z,102002.00
2023-03-16T01:44:22.268Z,102000.97
2023-03-16T01:49:25.252Z,102010.06
2023-03-16T01:54:40.681Z,102012.97
2023-03-16T02:00:19.484Z,102012.34
2023-03-16T02:05:23.013Z,102005.09
2023-03-16T02:10:20.778Z,101998.50
2023-03-16T02:15:19.032Z,101998.31
2023-03-16T02:20:25.333Z,101992.31
2023-03-16T02:25:37.811Z,101989.00
2023-03-16T02:30:34.965Z,101978.28
2023-03-16T02:35:33.147Z,101979.31
2023-03-16T02:40:32.321Z,101989.41
2023-03-16T02:45:33.500Z,101981.56
2023-03-16T02:50:30.036Z,101973.91
2023-03-16T02:55:26.523Z,101977.81
2023-03-16T03:00:23.078Z,101986.50
2023-03-16T03:05:19.603Z,101980.91
2023-03-16T03:10:17.235Z,101976.56
2023-03-16T03:15:14.871Z,101980.31
2023-03-16T03:20:17.353Z,101993.56
2023-03-16T03:25:16.186Z,101997.69
2023-03-16T03:30:16.066Z,101990.88
2023-03-16T03:35:14.620Z,101993.75
2023-03-16T03:40:13.746Z,101984.03
2023-03-16T03:45:12.917Z,101988.78
2023-03-16T03:50:11.254Z,101993.13
2023-03-16T03:55:08.501Z,101991.06
2023-03-16T04:00:09.489Z,101996.84
2023-03-16T04:05:07.363Z,101982.81
2023-03-16T04:10:04.237Z,101986.94
2023-03-16T04:15:00.681Z,101987.56
2023-03-16T04:19:57.131Z,101983.66
2023-03-16T04:24:53.677Z,101982.44
2023-03-16T04:29:50.091Z,101979.09
2023-03-16T04:34:47.767Z,101976.84
2023-03-16T04:39:44.198Z,101976.84
2023-03-16T04:44:44.307Z,101973.78
2023-03-16T04:49:41.183Z,101990.31
2023-03-16T04:54:37.561Z,101985.31
2023-03-16T04:59:33.961Z,101982.44
2023-03-16T05:04:30.417Z,101979.13
2023-03-16T05:09:26.857Z,101970.66
2023-03-16T05:14:23.579Z,101962.59
2023-03-16T05:19:19.959Z,101955.78
2023-03-16T05:24:17.359Z,101959.47
2023-03-16T05:29:13.741Z,101962.34
2023-03-16T05:34:10.159Z,101959.25
2023-03-16T05:39:08.411Z,101969.53
2023-03-16T05:44:04.858Z,101979.41
2023-03-16T05:49:01.320Z,101981.88
2023-03-16T05:53:58.016Z,101980.59
2023-03-16T05:58:55.585Z,101982.63
2023-03-16T06:03:52.539Z,101971.84
2023-03-16T06:08:49.399Z,101964.34
2023-03-16T06:13:45.861Z,101968.25
2023-03-16T06:18:42.330Z,101966.34
2023-03-16T06:23:38.754Z,101962.53
2023-03-16T06:28:35.188Z,101957.53
2023-03-16T06:33:32.090Z,101979.31
2023-03-16T06:38:29.038Z,101972.69
2023-03-16T06:43:25.568Z,101975.94
2023-03-16T06:48:22.010Z,101969.59
2023-03-16T06:53:18.377Z,101967.97
2023-03-16T06:58:14.845Z,101972.91
2023-03-16T07:03:11.317Z,101972.13
2023-03-16T07:08:07.828Z,101969.28
2023-03-16T07:13:04.262Z,101979.84
2023-03-16T07:18:00.859Z,101975.72
2023-03-16T07:22:57.791Z,101976.72
2023-03-16T07:27:54.175Z,101979.97
2023-03-16T07:32:51.445Z,101983.19
2023-03-16T07:37:48.032Z,101978.34
2023-03-16T07:42:44.404Z,101983.81
2023-03-16T07:47:41.616Z,101980.63
2023-03-16T07:52:38.041Z,101991.56
2023-03-16T07:57:34.477Z,101984.84
2023-03-16T08:02:31.292Z,101989.31
2023-03-16T08:07:27.837Z,101981.69
2023-03-16T08:12:24.299Z,101986.03
2023-03-16T08:17:21.523Z,101990.78
2023-03-16T08:22:17.948Z,101991.56
2023-03-16T08:27:16.046Z,101976.84
2023-03-16T08:32:12.520Z,101977.22
2023-03-16T08:37:09.675Z,101971.03
2023-03-16T08:42:07.445Z,101970.47
2023-03-16T08:47:05.067Z,101972.28
2023-03-16T08:52:01.457Z,101969.97
2023-03-16T08:56:58.034Z,101972.06
2023-03-16T09:01:54.475Z,101956.44
2023-03-16T09:07:05.825Z,101953.44
2023-03-16T09:12:04.488Z,101938.59
2023-03-16T09:17:01.038Z,101935.75
2023-03-16T09:21:58.748Z,101929.84
2023-03-16T09:26:55.923Z,101925.94
2023-03-16T09:31:52.476Z,101913.38
2023-03-16T09:36:48.977Z,101916.75
2023-03-16T09:41:50.393Z,101911.19
2023-03-16T09:46:49.489Z,101899.78
2023-03-16T09:51:59.683Z,101903.03
2023-03-16T09:56:57.940Z,101887.47
2023-03-16T10:02:15.541Z,101894.78
2023-03-16T10:07:20.002Z,101891.03
2023-03-16T10:12:17.047Z,101882.53
2023-03-16T10:17:21.417Z,101872.88
2023-03-16T10:22:26.304Z,101873.94
2023-03-16T10:27:32.027Z,101865.78
2023-03-16T10:32:34.510Z,101868.56
2023-03-16T10:37:31.144Z,101863.91
2023-03-16T10:42:28.232Z,101857.09
2023-03-16T10:47:31.363Z,101844.44
2023-03-16T10:52:39.868Z,101849.41
2023-03-16T10:57:41.371Z,101845.59
2023-03-16T11:02:39.112Z,101838.56
2023-03-16T11:07:36.110Z,101844.00
2023-03-16T11:12:33.271Z,101826.69
2023-03-16T11:17:39.925Z,101820.47
2023-03-16T11:22:36.355Z,101812.63
2023-03-16T11:27:47.739Z,101798.03
2023-03-16T11:32:50.950Z,101801.00
2023-03-16T11:38:11.463Z,101799.88
2023-03-16T11:43:49.272Z,101795.47
2023-03-16T11:48:48.318Z,101775.56
2023-03-16T11:54:03.203Z,101779.59
2023-03-16T11:59:21.252Z,101782.75
2023-03-16T12:04:32.199Z,101760.50
2023-03-16T12:09:48.090Z,101758.81
2023-03-16T12:14:52.371Z,101754.03
2023-03-16T12:19:56.803Z,101754.47
2023-03-16T12:24:53.235Z,101735.44
2023-03-16T12:29:56.923Z,101723.28
2023-03-16T12:35:00.071Z,101721.97
2023-03-16T12:40:09.195Z,101704.88
2023-03-16T12:45:27.599Z,101697.00
2023-03-16T12:50:25.287Z,101691.53
2023-03-16T12:55:39.582Z,101682.91
2023-03-16T13:00:41.103Z,101675.94
2023-03-16T13:05:45.595Z,101662.81
2023-03-16T13:10:43.479Z,101664.91
2023-03-16T13:15:39.973Z,101645.56
2023-03-16T13:20:58.154Z,101649.41
2023-03-16T13:26:03.232Z,101638.25
2023-03-16T13:31:00.858Z,101639.50
2023-03-16T13:35:59.064Z,101636.72
2023-03-16T13:41:01.453Z,101625.13
2023-03-16T13:45:58.487Z,101626.47
2023-03-16T13:50:59.829Z,101621.81
2023-03-16T13:55:58.672Z,101628.06
2023-03-16T14:00:57.181Z,101619.78
2023-03-16T14:05:57.504Z,101612.81
2023-03-16T14:10:59.171Z,101607.56
2023-03-16T14:16:03.361Z,101606.16
2023-03-16T14:20:59.934Z,101606.94
2023-03-16T14:25:56.473Z,101591.16
2023-03-16T14:30:55.577Z,101597.78
2023-03-16T14:35:56.087Z,101577.03
2023-03-16T14:40:55.909Z,101573.06
2023-03-16T14:45:52.706Z,101567.00
2023-03-16T14:50:57.544Z,101562.63
2023-03-16T14:55:55.513Z,101543.44
2023-03-16T15:00:53.794Z,101536.13
2023-03-16T15:05:51.579Z,101520.25
2023-03-16T15:10:49.389Z,101530.25
2023-03-16T15:15:48.500Z,101517.84
2023-03-16T15:20:45.377Z,101510.72
2023-03-16T15:25:44.673Z,101506.25
2023-03-16T15:30:42.135Z,101504.34
2023-03-16T15:35:39.935Z,101497.38
2023-03-16T15:40:39.447Z,101502.78
2023-03-16T15:45:36.068Z,101503.31
2023-03-16T15:50:33.328Z,101507.16
2023-03-16T15:55:43.611Z,101490.06
2023-03-16T16:00:40.864Z,101493.84
2023-03-16T16:05:37.306Z,101502.13
2023-03-16T16:10:34.549Z,101485.91
2023-03-16T16:15:35.469Z,101480.22
2023-03-16T16:20:32.695Z,101484.59
2023-03-16T16:25:37.352Z,101480.84
2023-03-16T16:30:33.780Z,101483.31
2023-03-16T16:35:31.899Z,101487.97
2023-03-16T16:40:45.748Z,101477.09
2023-03-16T16:45:42.399Z,101486.66
2023-03-16T16:50:38.771Z,101476.06
2023-03-16T16:55:35.303Z,101470.63
2023-03-16T17:00:33.221Z,101463.56
2023-03-16T17:05:30.018Z,101454.34
2023-03-16T17:10:27.829Z,101460.63
2023-03-16T17:15:32.832Z,101444.09
2023-03-16T17:20:30.057Z,101440.84
2023-03-16T17:25:27.933Z,101443.31
2023-03-16T17:30:29.801Z,101449.03
2023-03-16T17:35:26.217Z,101460.47
2023-03-16T17:40:25.516Z,101461.56
2023-03-16T17:45:26.035Z,101465.94
2023-03-16T17:50:26.827Z,101466.47
2023-03-16T17:55:24.980Z,101461.03
2023-03-16T18:00:33.004Z,101442.56
2023-03-16T18:05:32.709Z,101432.81
2023-03-16T18:10:31.244Z,101431.19
2023-03-16T18:15:31.977Z,101427.66
2023-03-16T18:20:36.500Z,101415.44
2023-03-16T18:25:39.079Z,101408.38
2023-03-16T18:30:46.525Z,101401.88
2023-03-16T18:35:44.177Z,101408.94
2023-03-16T18:40:41.386Z,101409.50
2023-03-16T18:45:38.339Z,101406.75
2023-03-16T18:50:34.821Z,101401.59
2023-03-16T18:55:31.821Z,101396.44
2023-03-16T19:00:29.929Z,101405.69
2023-03-16T19:05:33.980Z,101396.44
2023-03-16T19:10:33.103Z,101387.75
2023-03-16T19:15:32.651Z,101379.63
2023-03-16T19:20:31.824Z,101368.50
2023-03-16T19:25:38.308Z,101374.19
2023-03-16T19:30:36.196Z,101374.19
2023-03-16T19:35:48.766Z,101379.88
2023-03-16T19:40:56.081Z,101363.31
2023-03-16T19:45:53.105Z,101361.97
2023-03-16T19:50:51.003Z,101354.63
2023-03-16T19:55:49.697Z,101342.16
2023-03-16T20:00:54.185Z,101350.28
2023-03-16T20:05:50.800Z,101337.78
2023-03-16T20:10:48.776Z,101342.38
2023-03-16T20:15:46.567Z,101343.19
2023-03-16T20:20:43.913Z,101336.16
2023-03-16T20:25:43.360Z,101336.19
2023-03-16T20:30:39.844Z,101327.47
2023-03-16T20:35:36.309Z,101315.81
2023-03-16T20:40:33.272Z,101322.03
2023-03-16T20:45:30.389Z,101315.81
2023-03-16T20:50:30.534Z,101300.34
2023-03-16T20:55:29.151Z,101294.38
2023-03-16T21:00:30.663Z,101290.56
2023-03-16T21:05:27.761Z,101284.84
2023-03-16T21:10:25.570Z,101268.03
2023-03-16T21:15:27.912Z,101259.09
2023-03-16T21:20:26.429Z,101255.81
2023-03-16T21:25:32.257Z,101266.94
2023-03-16T21:30:30.410Z,101252.03
2023-03-16T21:35:33.010Z,101249.84
2023-03-16T21:40:29.650Z,101236.28
2023-03-16T21:45:26.384Z,101238.16
2023-03-16T21:50:27.951Z,101239.28
2023-03-16T21:55:27.010Z,101234.41
2023-03-16T22:00:29.005Z,101247.66
2023-03-16T22:05:31.887Z,101234.09
2023-03-16T22:10:29.732Z,101228.69
2023-03-16T22:15:27.376Z,101224.88
2023-03-16T22:20:27.208Z,101222.16
2023-03-16T22:25:25.470Z,101220.00
2023-03-16T22:30:27.636Z,101230.84
2023-03-16T22:35:37.926Z,101223.81
2023-03-16T22:40:37.629Z,101213.22
2023-03-16T22:45:34.690Z,101212.97
2023-03-16T22:50:35.007Z,101202.94
2023-03-16T22:55:35.543Z,101197.50
2023-03-16T23:00:32.001Z,101202.09
2023-03-16T23:05:29.630Z,101178.25
2023-03-16T23:10:30.332Z,101182.88
2023-03-16T23:15:30.169Z,101179.31
2023-03-16T23:20:30.252Z,101157.09
2023-03-16T23:25:26.825Z,101153.56
2023-03-16T23:30:25.635Z,101144.88
2023-03-16T23:35:25.202Z,101149.50
2023-03-16T23:40:23.928Z,101141.38
2023-03-16T23:45:25.143Z,101155.47
2023-03-16T23:50:26.673Z,101144.06
2023-03-16T23:55:24.112Z,101135.41
